Waterbury, CT

1:35 AM EDT on September 21, 2014 (GMT -0400)
Waterbury-Oxford | Change Station
CLOSE
Current Station
Airport
Location: Oxford,
Elevation: 725 ft
Nearby Weather Stations

Elev 725 ft 41.47 °N, 73.14 °W | Updated 20 minutes ago

Overcast
Overcast
63 °F
Feels Like 63 °F
N
0
Wind Variable Wind from North

Today
High -- | Low -- °F
--% Chance of Precip.
Yesterday
High -- | Low -- °F
Precip. -- in
6:38 AM 6:51 PM
Waning Crescent, 8% visible
Pressure 30.08 in
Visibility 2.5 miles
Clouds Mostly Cloudy 400 ft
Overcast 1400 ft
Dew Point 59 °F
Humidity 88%
Rainfall 0.00 in
Snow Depth Not available.
UV 0 out of 12
Pollen 2.70 out of 12
Ozone Good
PM2.5 Good
Flu Activity Not available.
METAR KOXC 210515Z 00000KT 2 1/2SM BKN004 OVC014 17/15 A3008 RMK AO1

More Conditions Fewer Conditions

Pressure 30.08 in
Visibility 2.5 miles
Clouds Mostly Cloudy 400 ft
Overcast 1400 ft
Dew Point 59 °F
Humidity 88%
Rainfall 0.00 in
Snow Depth Not available.
UV 0 out of 12
Pollen 2.70 out of 12
Ozone Good
PM2.5 Good
Flu Activity Not available.
METAR KOXC 210515Z 00000KT 2 1/2SM BKN004 OVC014 17/15 A3008 RMK AO1

More Conditions Fewer Conditions

10-Day Weather Forecast

Almanac

Astronomy

Sep. 21, 2014 Rise Set
Actual Time 6:38 AM EDT 6:51 PM EDT
Civil Twilight 6:10 AM EDT 7:18 PM EDT
Nautical Twilight 5:38 AM EDT 7:51 PM EDT
Astronomical Twilight 5:05 AM EDT 8:24 PM EDT
Moon 4:08 AM EDT 5:26 PM EDT
Length of Visible Light 13h 07m
Length of Day
12h 12m
Tomorrow will be 2m 45s shorter.
Waning Crescent, 8% of the Moon is Illuminated
Today
Waning Crescent
Sep 24
New
Oct 1
First Quarter
Oct 8
Full
Oct 15
Last Quarter

Today's Extremes

State Highs State Lows

Community

WunderPhotos

Upload Photos

1,755,090 photos uploaded!

Nearby

Air Quality

  Air Quality AQ Index Pollutant
Yesterday Good
PM10
Yesterday Good
OZONE
Current Good
OZONE
Current Good
PM2.5
Saturday Good
OZONE
Saturday Good
PM2.5
Sunday Good
PM2.5
Sunday Good
OZONE
Monday Good
PM2.5
Monday Good
OZONE

Snow Depth

Station Depth Elevation
No new snow has been reported.

Earthquake Activity

City Distance Mag. Time & Date
No recent earthquake activity has been reported nearby.
Minimum magnitude displayed is 2.5.

Coastal Water Temperatures

Place Temperature
Kings Point, NY 69.1 °F
Bridgeport, CT 69.1 °F

Nearby Weather Stations